createdAt,value
2019-02-21T00:01:42.679Z,4.90
2019-02-21T00:04:12.818Z,4.90
2019-02-21T00:06:41.374Z,4.90
2019-02-21T00:09:10.213Z,4.90
2019-02-21T00:11:38.854Z,4.90
2019-02-21T00:14:07.458Z,4.90
2019-02-21T00:16:35.935Z,4.90
2019-02-21T00:19:04.495Z,4.80
2019-02-21T00:21:32.973Z,4.80
2019-02-21T00:24:01.514Z,4.80
2019-02-21T00:26:30.106Z,4.80
2019-02-21T00:28:59.502Z,4.80
2019-02-21T00:31:28.042Z,4.80
2019-02-21T00:33:56.553Z,4.80
2019-02-21T00:36:25.350Z,4.80
2019-02-21T00:38:54.854Z,4.70
2019-02-21T00:41:23.352Z,4.70
2019-02-21T00:43:52.225Z,4.70
2019-02-21T00:46:20.770Z,4.60
2019-02-21T00:48:49.343Z,4.50
2019-02-21T00:51:17.894Z,4.40
2019-02-21T00:53:46.377Z,4.30
2019-02-21T00:56:15.239Z,4.30
2019-02-21T00:58:44.032Z,4.30
2019-02-21T01:01:12.920Z,4.30
2019-02-21T01:03:41.810Z,4.30
2019-02-21T01:06:10.345Z,4.30
2019-02-21T01:08:38.834Z,4.30
2019-02-21T01:11:07.470Z,4.20
2019-02-21T01:13:36.241Z,4.10
2019-02-21T01:16:04.861Z,4.20
2019-02-21T01:18:33.713Z,4.10
2019-02-21T01:21:02.286Z,4.20
2019-02-21T01:23:30.835Z,4.10
2019-02-21T01:25:59.378Z,4.10
2019-02-21T01:28:27.947Z,4.10
2019-02-21T01:30:57.297Z,4.10
2019-02-21T01:33:26.544Z,4.10
2019-02-21T01:35:55.070Z,4.10
2019-02-21T01:38:23.618Z,4.00
2019-02-21T01:40:52.195Z,4.00
2019-02-21T01:43:20.806Z,3.90
2019-02-21T01:45:49.560Z,3.80
2019-02-21T01:48:18.090Z,3.80
2019-02-21T01:50:46.820Z,3.80
2019-02-21T01:53:15.406Z,3.80
2019-02-21T01:55:44.814Z,3.80
2019-02-21T01:58:13.370Z,3.80
2019-02-21T02:00:41.943Z,3.80
2019-02-21T02:03:10.490Z,3.90
2019-02-21T02:05:39.031Z,3.90
2019-02-21T02:08:07.606Z,3.90
2019-02-21T02:10:36.179Z,3.90
2019-02-21T02:13:04.720Z,3.90
2019-02-21T02:15:33.323Z,3.90
2019-02-21T02:18:01.903Z,3.90
2019-02-21T02:20:30.464Z,3.80
2019-02-21T02:22:58.994Z,3.80
2019-02-21T02:25:27.508Z,4.00
2019-02-21T02:28:15.424Z,4.10
2019-02-21T02:31:03.673Z,4.30
2019-02-21T02:33:32.288Z,4.40
2019-02-21T02:36:00.835Z,4.50
2019-02-21T02:38:29.411Z,4.60
2019-02-21T02:40:57.947Z,4.60
2019-02-21T02:43:26.491Z,4.70
2019-02-21T02:45:55.069Z,4.80
2019-02-21T02:48:23.616Z,4.80
2019-02-21T02:50:52.155Z,4.90
2019-02-21T02:53:20.714Z,4.90
2019-02-21T02:55:49.192Z,4.90
2019-02-21T02:58:17.849Z,4.90
2019-02-21T03:00:46.384Z,4.90
2019-02-21T03:03:14.953Z,5.00
2019-02-21T03:05:43.759Z,4.90
2019-02-21T03:08:12.610Z,4.90
2019-02-21T03:10:41.177Z,4.90
2019-02-21T03:13:09.731Z,4.90
2019-02-21T03:15:39.300Z,4.90
2019-02-21T03:18:07.916Z,4.90
2019-02-21T03:20:36.406Z,4.90
2019-02-21T03:23:04.875Z,4.80
2019-02-21T03:25:33.422Z,4.90
2019-02-21T03:28:01.995Z,4.90
2019-02-21T03:30:30.543Z,4.80
2019-02-21T03:32:59.085Z,4.80
2019-02-21T03:35:27.652Z,4.80
2019-02-21T03:37:56.270Z,4.70
2019-02-21T03:40:24.850Z,4.70
2019-02-21T03:42:53.390Z,4.60
2019-02-21T03:45:22.027Z,4.50
2019-02-21T03:47:50.852Z,4.50
2019-02-21T03:50:19.387Z,4.40
2019-02-21T03:52:47.989Z,4.40
2019-02-21T03:55:16.506Z,4.30
2019-02-21T03:57:45.279Z,4.30
2019-02-21T04:00:14.002Z,4.30
2019-02-21T04:02:42.621Z,4.20
2019-02-21T04:05:11.156Z,4.20
2019-02-21T04:07:40.022Z,4.20
2019-02-21T04:10:09.827Z,4.10
2019-02-21T04:12:38.417Z,4.10
2019-02-21T04:15:09.365Z,4.10
2019-02-21T04:17:37.918Z,4.10
2019-02-21T04:20:09.926Z,4.10
2019-02-21T04:22:38.479Z,4.10
2019-02-21T04:25:07.318Z,4.10
2019-02-21T04:27:36.160Z,4.10
2019-02-21T04:30:25.587Z,4.00
2019-02-21T04:32:54.126Z,4.00
2019-02-21T04:35:22.711Z,4.00
2019-02-21T04:37:51.242Z,4.00
2019-02-21T04:40:19.808Z,4.00
2019-02-21T04:42:48.367Z,4.00
2019-02-21T04:45:16.903Z,4.00
2019-02-21T04:47:45.491Z,4.00
2019-02-21T04:50:14.038Z,4.00
2019-02-21T04:52:42.596Z,4.00
2019-02-21T04:55:11.161Z,4.00
2019-02-21T04:57:40.042Z,4.00
2019-02-21T05:00:11.332Z,3.90
2019-02-21T05:02:39.914Z,3.90
2019-02-21T05:05:08.522Z,3.90
2019-02-21T05:07:37.337Z,3.90
2019-02-21T05:10:07.166Z,3.90
2019-02-21T05:12:35.850Z,3.90
2019-02-21T05:15:05.530Z,3.90
2019-02-21T05:17:34.098Z,3.90
2019-02-21T05:20:02.576Z,4.00
2019-02-21T05:22:31.134Z,3.90
2019-02-21T05:24:59.690Z,3.90
2019-02-21T05:27:29.872Z,3.80
2019-02-21T05:29:58.793Z,3.90
2019-02-21T05:32:40.874Z,3.90
2019-02-21T05:35:08.766Z,3.90
2019-02-21T05:37:41.947Z,3.90
2019-02-21T05:40:12.146Z,3.90
2019-02-21T05:42:57.843Z,3.80
2019-02-21T05:48:11.666Z,3.80
2019-02-21T05:50:42.129Z,3.80
2019-02-21T05:53:14.981Z,3.80
2019-02-21T05:55:47.891Z,3.80
2019-02-21T05:58:33.473Z,3.80
2019-02-21T06:01:03.698Z,3.80
2019-02-21T06:06:43.551Z,3.90
2019-02-21T06:09:27.395Z,3.90
2019-02-21T06:12:03.615Z,3.90
2019-02-21T06:14:33.804Z,4.00
2019-02-21T06:17:04.076Z,4.00
2019-02-21T06:19:34.633Z,3.90
2019-02-21T06:25:00.341Z,3.90
2019-02-21T06:27:39.519Z,3.90
2019-02-21T06:30:10.503Z,3.90
2019-02-21T06:32:40.775Z,3.80
2019-02-21T06:35:10.546Z,3.80
2019-02-21T06:37:39.459Z,3.80
2019-02-21T06:40:08.131Z,3.80
2019-02-21T06:42:36.620Z,3.80
2019-02-21T06:45:06.315Z,3.90
2019-02-21T06:47:34.944Z,3.90
2019-02-21T06:50:03.989Z,4.00
2019-02-21T06:52:32.526Z,4.00
2019-02-21T06:55:02.345Z,4.00
2019-02-21T06:57:31.319Z,4.10
2019-02-21T06:59:59.890Z,4.10
2019-02-21T07:02:28.450Z,4.10
2019-02-21T07:04:57.012Z,4.10
2019-02-21T07:07:25.555Z,4.10
2019-02-21T07:09:54.131Z,4.20
2019-02-21T07:12:22.666Z,4.20
2019-02-21T07:14:51.252Z,4.20
2019-02-21T07:17:19.800Z,4.30
2019-02-21T07:19:48.334Z,4.30
2019-02-21T07:22:18.067Z,4.40
2019-02-21T07:24:48.751Z,4.40
2019-02-21T07:27:17.318Z,4.40
2019-02-21T07:29:46.144Z,4.40
2019-02-21T07:32:14.678Z,4.40
2019-02-21T07:34:43.179Z,4.50
2019-02-21T07:37:18.533Z,4.60
2019-02-21T07:39:41.942Z,4.60
2019-02-21T07:42:10.795Z,4.70
2019-02-21T07:44:39.332Z,4.80
2019-02-21T07:47:07.894Z,4.80
2019-02-21T07:49:36.510Z,4.90
2019-02-21T07:52:05.611Z,4.90
2019-02-21T07:54:34.246Z,4.90
2019-02-21T07:57:02.869Z,4.80
2019-02-21T07:59:31.418Z,4.80
2019-02-21T08:01:59.895Z,4.80
2019-02-21T08:04:28.767Z,4.80
2019-02-21T08:06:57.334Z,4.80
2019-02-21T08:09:27.728Z,4.80
2019-02-21T08:11:56.449Z,4.90
2019-02-21T08:14:24.991Z,5.00
2019-02-21T08:16:56.062Z,5.00
2019-02-21T08:19:24.143Z,5.10
2019-02-21T08:21:52.782Z,5.20
2019-02-21T08:24:21.440Z,5.20
2019-02-21T08:26:49.999Z,5.30
2019-02-21T08:29:20.631Z,5.30
2019-02-21T08:31:48.762Z,5.30
2019-02-21T08:34:18.962Z,5.30
2019-02-21T08:36:47.422Z,5.30
2019-02-21T08:39:15.906Z,5.30
2019-02-21T08:41:44.477Z,5.40
2019-02-21T08:44:13.010Z,5.40
2019-02-21T08:46:41.638Z,5.40
2019-02-21T08:49:10.206Z,5.50
2019-02-21T08:51:38.750Z,5.60
2019-02-21T08:54:07.291Z,5.70
2019-02-21T08:56:36.052Z,5.80
2019-02-21T08:59:04.586Z,5.90
2019-02-21T09:01:33.058Z,6.00
2019-02-21T09:04:10.031Z,6.20
2019-02-21T09:06:31.891Z,6.30
2019-02-21T09:09:00.439Z,6.30
2019-02-21T09:11:29.502Z,6.20
2019-02-21T09:13:58.031Z,6.20
2019-02-21T09:16:26.634Z,6.40
2019-02-21T09:18:55.211Z,6.50
2019-02-21T09:21:23.831Z,6.60
2019-02-21T09:23:52.395Z,6.70
2019-02-21T09:26:21.756Z,6.80
2019-02-21T09:28:50.385Z,6.90
2019-02-21T09:31:18.972Z,7.10
2019-02-21T09:33:47.523Z,7.30
2019-02-21T09:36:16.095Z,7.60
2019-02-21T09:38:44.628Z,8.00
2019-02-21T09:41:13.175Z,8.40
2019-02-21T09:43:41.795Z,8.70
2019-02-21T09:46:10.881Z,9.50
2019-02-21T09:48:39.494Z,10.00
2019-02-21T09:51:08.353Z,10.50
2019-02-21T09:53:37.003Z,11.20
2019-02-21T09:56:05.691Z,11.50
2019-02-21T09:58:34.270Z,11.00
2019-02-21T10:01:02.896Z,11.50
2019-02-21T10:03:31.407Z,12.70
2019-02-21T10:06:00.260Z,14.00
2019-02-21T10:08:28.879Z,15.10
2019-02-21T10:10:57.459Z,16.00
2019-02-21T10:13:25.928Z,16.20
2019-02-21T10:15:54.498Z,16.60
2019-02-21T10:18:23.039Z,17.10
2019-02-21T10:20:51.593Z,17.40
2019-02-21T10:23:42.037Z,16.80
2019-02-21T10:26:09.689Z,16.50
2019-02-21T10:28:38.303Z,16.40
2019-02-21T10:31:07.182Z,16.10
2019-02-21T10:33:46.295Z,15.10
2019-02-21T10:36:06.187Z,14.20
2019-02-21T10:38:34.834Z,14.10
2019-02-21T10:41:03.391Z,14.10
2019-02-21T10:43:32.239Z,14.10
2019-02-21T10:46:01.032Z,14.00
2019-02-21T10:48:31.054Z,13.90
2019-02-21T10:51:00.035Z,13.70
2019-02-21T10:53:28.590Z,13.50
2019-02-21T10:55:57.156Z,13.10
2019-02-21T10:58:26.439Z,12.80
2019-02-21T11:00:55.390Z,12.70
2019-02-21T11:03:23.942Z,12.40
2019-02-21T11:05:52.868Z,12.10
2019-02-21T11:08:21.415Z,11.70
2019-02-21T11:10:50.524Z,11.50
2019-02-21T11:13:19.328Z,11.40
2019-02-21T11:15:47.966Z,11.20
2019-02-21T11:18:16.551Z,11.00
2019-02-21T11:20:45.156Z,11.00
2019-02-21T11:23:14.074Z,11.00
2019-02-21T11:25:42.682Z,11.20
2019-02-21T11:28:12.055Z,11.00
2019-02-21T11:30:40.760Z,10.80
2019-02-21T11:33:09.471Z,10.70
2019-02-21T11:35:38.052Z,10.60
2019-02-21T11:38:06.723Z,10.50
2019-02-21T11:40:35.355Z,10.30
2019-02-21T11:43:04.005Z,10.40
2019-02-21T11:45:33.923Z,10.30
2019-02-21T11:48:02.474Z,10.40
2019-02-21T11:50:31.069Z,10.50
2019-02-21T11:53:00.115Z,10.60
2019-02-21T11:55:28.743Z,10.60
2019-02-21T11:57:57.709Z,10.70
2019-02-21T12:00:30.706Z,10.90
2019-02-21T12:02:59.355Z,11.10
2019-02-21T12:05:31.062Z,11.50
2019-02-21T12:07:58.156Z,11.80
2019-02-21T12:10:26.727Z,11.90
2019-02-21T12:12:56.268Z,12.00
2019-02-21T12:15:24.805Z,12.10
2019-02-21T12:17:53.380Z,12.00
2019-02-21T12:20:22.009Z,12.10
2019-02-21T12:22:50.564Z,12.00
2019-02-21T12:25:23.081Z,11.90
2019-02-21T12:27:51.960Z,11.90
2019-02-21T12:30:21.146Z,11.80
2019-02-21T12:32:50.048Z,11.80
2019-02-21T12:35:29.399Z,11.70
2019-02-21T12:37:49.068Z,11.80
2019-02-21T12:40:23.678Z,11.70
2019-02-21T12:42:52.289Z,11.70
2019-02-21T12:45:26.175Z,11.70
2019-02-21T12:47:54.754Z,11.60
2019-02-21T12:50:23.473Z,11.60
2019-02-21T12:52:52.026Z,11.70
2019-02-21T12:55:28.210Z,11.70
2019-02-21T12:57:50.874Z,11.70
2019-02-21T13:00:20.567Z,11.70
2019-02-21T13:02:49.626Z,11.70
2019-02-21T13:05:18.328Z,11.60
2019-02-21T13:07:46.954Z,11.60
2019-02-21T13:10:18.034Z,11.60
2019-02-21T13:12:46.654Z,11.60
2019-02-21T13:15:15.743Z,11.70
2019-02-21T13:17:44.323Z,11.60
2019-02-21T13:20:16.465Z,11.70
2019-02-21T13:22:45.030Z,11.70
2019-02-21T13:25:15.575Z,11.70
2019-02-21T13:27:44.463Z,11.70
2019-02-21T13:30:32.375Z,11.70
2019-02-21T13:33:00.922Z,11.70
2019-02-21T13:35:29.496Z,11.80
2019-02-21T13:37:58.032Z,11.80
2019-02-21T13:40:26.574Z,11.80
2019-02-21T13:42:55.167Z,11.80
2019-02-21T13:45:23.764Z,11.70
2019-02-21T13:47:52.724Z,11.70
2019-02-21T13:50:23.793Z,11.70
2019-02-21T13:52:52.191Z,11.70
2019-02-21T13:55:20.734Z,11.70
2019-02-21T13:57:49.412Z,11.70
2019-02-21T14:00:45.292Z,11.70
2019-02-21T14:03:13.855Z,11.70
2019-02-21T14:05:42.322Z,11.80
2019-02-21T14:08:10.988Z,11.70
2019-02-21T14:10:40.443Z,11.70
2019-02-21T14:13:11.730Z,11.80
2019-02-21T14:15:39.226Z,11.80
2019-02-21T14:18:07.789Z,11.80
2019-02-21T14:20:44.923Z,11.80
2019-02-21T14:23:06.572Z,11.80
2019-02-21T14:25:40.696Z,11.80
2019-02-21T14:28:06.256Z,11.70
2019-02-21T14:30:34.875Z,11.70
2019-02-21T14:33:03.432Z,11.70
2019-02-21T14:35:31.997Z,11.70
2019-02-21T14:38:00.635Z,11.70
2019-02-21T14:40:29.480Z,11.70
2019-02-21T14:42:58.368Z,11.60
2019-02-21T14:45:26.920Z,11.60
2019-02-21T14:47:55.488Z,11.60
2019-02-21T14:50:24.034Z,11.60
2019-02-21T14:52:54.222Z,11.50
2019-02-21T14:55:22.894Z,11.50
2019-02-21T14:57:51.833Z,11.50
2019-02-21T15:00:22.975Z,11.40
2019-02-21T15:02:51.962Z,11.40
2019-02-21T15:05:20.947Z,11.40
2019-02-21T15:07:49.774Z,11.40
2019-02-21T15:10:18.387Z,11.40
2019-02-21T15:12:47.602Z,11.40
2019-02-21T15:15:22.310Z,11.40
2019-02-21T15:17:50.869Z,11.30
2019-02-21T15:20:20.118Z,11.20
2019-02-21T15:22:48.779Z,11.20
2019-02-21T15:25:17.473Z,11.10
2019-02-21T15:27:46.246Z,11.10
2019-02-21T15:30:25.473Z,11.00
2019-02-21T15:32:54.096Z,11.00
2019-02-21T15:35:22.637Z,11.00
2019-02-21T15:37:52.588Z,10.90
2019-02-21T15:40:21.146Z,10.90
2019-02-21T15:42:52.445Z,11.00
2019-02-21T15:45:24.082Z,10.90
2019-02-21T15:47:52.652Z,10.90
2019-02-21T15:50:21.534Z,10.80
2019-02-21T15:52:50.858Z,10.80
2019-02-21T15:55:20.513Z,10.90
2019-02-21T15:57:49.065Z,10.80
2019-02-21T16:00:24.985Z,10.80
2019-02-21T16:02:53.608Z,10.80
2019-02-21T16:05:22.174Z,10.80
2019-02-21T16:07:50.786Z,10.80
2019-02-21T16:10:26.418Z,10.80
2019-02-21T16:12:56.266Z,10.70
2019-02-21T16:15:25.611Z,10.70
2019-02-21T16:18:01.090Z,10.60
2019-02-21T16:20:29.921Z,10.60
2019-02-21T16:22:58.517Z,10.60
2019-02-21T16:25:29.375Z,10.50
2019-02-21T16:28:17.255Z,10.50
2019-02-21T16:30:45.831Z,10.50
2019-02-21T16:33:14.379Z,10.50
2019-02-21T16:35:42.951Z,10.40
2019-02-21T16:38:11.505Z,10.40
2019-02-21T16:40:40.126Z,10.30
2019-02-21T16:43:08.974Z,10.30
2019-02-21T16:45:43.464Z,10.20
2019-02-21T16:48:07.730Z,10.20
2019-02-21T16:50:37.295Z,10.10
2019-02-21T16:53:06.107Z,10.10
2019-02-21T16:55:34.960Z,10.10
2019-02-21T16:58:03.519Z,10.10
2019-02-21T17:00:47.386Z,10.10
2019-02-21T17:03:02.427Z,10.00
2019-02-21T17:05:31.262Z,10.00
2019-02-21T17:07:59.796Z,10.00
2019-02-21T17:10:28.422Z,10.00
2019-02-21T17:12:56.954Z,9.90
2019-02-21T17:15:25.522Z,9.90
2019-02-21T17:17:54.082Z,9.90
2019-02-21T17:20:25.872Z,9.90
2019-02-21T17:22:54.486Z,9.80
2019-02-21T17:25:23.060Z,9.80
2019-02-21T17:27:52.383Z,9.80
2019-02-21T17:30:21.067Z,9.80
2019-02-21T17:32:51.490Z,9.70
2019-02-21T17:35:20.122Z,9.70
2019-02-21T17:37:48.954Z,9.70
2019-02-21T17:40:24.741Z,9.70
2019-02-21T17:42:54.376Z,9.60
2019-02-21T17:45:22.988Z,9.70
2019-02-21T17:47:51.565Z,9.70
2019-02-21T17:50:20.690Z,9.70
2019-02-21T17:52:49.292Z,9.70
2019-02-21T17:55:18.480Z,9.70
2019-02-21T17:57:47.091Z,9.70
2019-02-21T18:00:22.397Z,9.60
2019-02-21T18:02:50.936Z,9.60
2019-02-21T18:05:19.851Z,9.60
2019-02-21T18:07:48.418Z,9.60
2019-02-21T18:10:18.105Z,9.60
2019-02-21T18:12:46.923Z,9.60
2019-02-21T18:15:16.756Z,9.50
2019-02-21T18:17:45.439Z,9.60
2019-02-21T18:20:16.899Z,9.50
2019-02-21T18:22:45.871Z,9.50
2019-02-21T18:25:35.349Z,9.50
2019-02-21T18:28:04.230Z,9.50
2019-02-21T18:30:32.930Z,9.50
2019-02-21T18:33:01.547Z,9.50
2019-02-21T18:35:31.919Z,9.40
2019-02-21T18:38:01.116Z,9.40
2019-02-21T18:40:30.035Z,9.40
2019-02-21T18:42:58.899Z,9.40
2019-02-21T18:45:27.582Z,9.40
2019-02-21T18:47:56.222Z,9.40
2019-02-21T18:50:24.840Z,9.40
2019-02-21T18:52:53.422Z,9.30
2019-02-21T18:55:22.424Z,9.30
2019-02-21T18:57:51.732Z,9.20
2019-02-21T19:00:22.613Z,9.20
2019-02-21T19:02:51.097Z,9.30
2019-02-21T19:05:20.691Z,9.30
2019-02-21T19:07:58.861Z,9.30
2019-02-21T19:10:23.547Z,9.30
2019-02-21T19:12:52.192Z,9.30
2019-02-21T19:15:21.818Z,9.40
2019-02-21T19:17:50.365Z,9.40
2019-02-21T19:20:21.460Z,9.40
2019-02-21T19:22:50.256Z,9.40
2019-02-21T19:25:19.442Z,9.50
2019-02-21T19:27:48.437Z,9.50
2019-02-21T19:30:29.123Z,9.50
2019-02-21T19:32:58.027Z,9.50
2019-02-21T19:35:26.818Z,9.50
2019-02-21T19:37:55.771Z,9.40
2019-02-21T19:40:24.409Z,9.40
2019-02-21T19:42:53.022Z,9.30
2019-02-21T19:45:23.531Z,9.30
2019-02-21T19:47:52.174Z,9.30
2019-02-21T19:50:20.806Z,9.20
2019-02-21T19:52:49.515Z,9.10
2019-02-21T19:55:18.244Z,9.10
2019-02-21T19:57:46.918Z,9.10
2019-02-21T20:00:22.678Z,9.00
2019-02-21T20:02:52.243Z,9.00
2019-02-21T20:05:21.124Z,8.90
2019-02-21T20:07:49.795Z,8.90
2019-02-21T20:10:19.102Z,8.90
2019-02-21T20:12:47.806Z,8.80
2019-02-21T20:15:16.770Z,8.80
2019-02-21T20:17:45.267Z,8.80
2019-02-21T20:20:22.977Z,8.80
2019-02-21T20:22:52.010Z,8.80
2019-02-21T20:25:20.570Z,8.80
2019-02-21T20:27:50.583Z,8.70
2019-02-21T20:30:19.868Z,8.70
2019-02-21T20:32:48.788Z,8.70
2019-02-21T20:35:17.436Z,8.70
2019-02-21T20:37:46.331Z,8.70
2019-02-21T20:40:14.942Z,8.70
2019-02-21T20:42:43.634Z,8.70
2019-02-21T20:45:13.913Z,8.60
2019-02-21T20:47:42.612Z,8.60
2019-02-21T20:50:13.335Z,8.60
2019-02-21T20:52:42.235Z,8.60
2019-02-21T20:55:12.064Z,8.60
2019-02-21T20:57:40.666Z,8.60
2019-02-21T21:00:12.793Z,8.60
2019-02-21T21:02:41.898Z,8.60
2019-02-21T21:05:10.399Z,8.60
2019-02-21T21:07:38.974Z,8.60
2019-02-21T21:10:26.778Z,8.60
2019-02-21T21:12:55.424Z,8.60
2019-02-21T21:15:23.955Z,8.80
2019-02-21T21:18:11.863Z,8.80
2019-02-21T21:20:40.394Z,8.80
2019-02-21T21:23:08.962Z,8.80
2019-02-21T21:25:37.510Z,8.80
2019-02-21T21:28:06.069Z,8.80
2019-02-21T21:30:34.631Z,8.90
2019-02-21T21:33:03.221Z,8.90
2019-02-21T21:35:31.832Z,8.90
2019-02-21T21:38:00.444Z,8.80
2019-02-21T21:40:29.094Z,8.90
2019-02-21T21:42:57.775Z,8.90
2019-02-21T21:45:26.396Z,8.90
2019-02-21T21:47:57.294Z,9.00
2019-02-21T21:50:25.533Z,9.00
2019-02-21T21:52:54.076Z,9.00
2019-02-21T21:55:22.637Z,9.00
2019-02-21T21:57:51.180Z,9.00
2019-02-21T22:00:22.190Z,9.00
2019-02-21T22:02:50.732Z,9.00
2019-02-21T22:05:19.510Z,9.00
2019-02-21T22:07:49.315Z,9.00
2019-02-21T22:10:37.918Z,9.00
2019-02-21T22:13:08.104Z,9.00
2019-02-21T22:15:36.653Z,8.90
2019-02-21T22:18:05.238Z,8.90
2019-02-21T22:20:34.903Z,8.90
2019-02-21T22:23:03.698Z,8.80
2019-02-21T22:25:32.235Z,8.80
2019-02-21T22:28:00.807Z,8.70
2019-02-21T22:30:29.657Z,8.70
2019-02-21T22:32:58.186Z,8.70
2019-02-21T22:35:27.024Z,8.70
2019-02-21T22:37:55.645Z,8.70
2019-02-21T22:40:24.187Z,8.80
2019-02-21T22:42:52.750Z,8.70
2019-02-21T22:45:21.286Z,8.80
2019-02-21T22:47:49.794Z,8.80
2019-02-21T22:50:19.470Z,8.80
2019-02-21T22:52:48.098Z,8.90
2019-02-21T22:55:19.378Z,8.80
2019-02-21T22:57:47.983Z,8.90
2019-02-21T23:00:57.083Z,8.90
2019-02-21T23:03:26.373Z,8.90
2019-02-21T23:06:31.455Z,8.90
2019-02-21T23:09:00.075Z,8.90
2019-02-21T23:11:28.644Z,8.90
2019-02-21T23:13:57.252Z,8.90
2019-02-21T23:16:26.875Z,8.90
2019-02-21T23:18:57.025Z,8.80
2019-02-21T23:21:25.562Z,8.90
2019-02-21T23:23:54.198Z,8.80
2019-02-21T23:26:22.753Z,8.90
2019-02-21T23:28:52.142Z,8.90
2019-02-21T23:31:20.627Z,8.80
2019-02-21T23:33:50.742Z,8.80
2019-02-21T23:36:19.633Z,8.80
2019-02-21T23:38:48.173Z,8.80
2019-02-21T23:41:16.647Z,8.80
2019-02-21T23:43:47.143Z,8.80
2019-02-21T23:46:15.406Z,8.80
2019-02-21T23:48:43.939Z,8.80
2019-02-21T23:51:12.505Z,8.80
2019-02-21T23:53:41.245Z,8.80
2019-02-21T23:56:09.876Z,8.80
2019-02-21T23:58:38.721Z,8.80
